• Join FlightAware (Why Join?)
  • Login
  • US Flag 
02:41AM EDT


 

Airport Tracker/Info


-or-


 

Live Flight TrackerFlight Track Log ✈ EGF3016 ✈ 28-Jun-2013 ✈ KALO - KORD

Flight Track Log - Related Links

Times and Time Zones

All times are in EDT time to prevent confusion due to time zone crossing. See the EGF3016 flight status page for this flight to view local times or setup timezone preferences in your user account.

Time Position Orientation Groundspeed Altitude Reporting Facility
EDT Latitude Longitude Course Direction KTS MPH feet Rate Location/Type
09:04AM 42.6139 -92.4306 90° East 221 254 5,100  Level Chicago Center
09:05AM 42.6156 -92.3403 89° East 237 273 7,200 2,220 Climbing Chicago Center
09:06AM 42.6075 -92.2283 96° East 272 313 9,700 2,100 Climbing Chicago Center
09:08AM 42.6006 -92.1111 95° East 297 342 11,600 1,740 Climbing Chicago Center
09:09AM 42.5333 -91.6469 90° East  Level FlightAware Approximate
09:09AM 42.5928 -91.9519 94° East 349 402 13,400  Level Chicago Center
09:10AM 42.5335 -91.5213 90° East  Level FlightAware Approximate
09:10AM 42.5853 -91.8125 94° East 373 429 15,000  Level Chicago Center
09:11AM 42.5778 -91.6664 94° East 393 452 16,500 1,440 Climbing Chicago Center
09:12AM 42.5689 -91.5197 95° East 400 460 18,000 1,620 Climbing Chicago Center
09:13AM 42.5592 -91.3456 94° East 396 456 19,900 1,680 Climbing Chicago Center
09:14AM 42.5492 -91.2008 95° East 392 451 21,500 1,380 Climbing Chicago Center
09:15AM 42.5403 -91.0506 95° East 403 464 22,800 720 Climbing Chicago Center
09:16AM 42.5300 -90.8908 95° East 425 489 23,000 60 Climbing Chicago Center
09:17AM 42.5242 -90.7153 93° East 466 536 23,000  Level Chicago Center
09:18AM 42.5222 -90.5028 91° East 476 548 23,000 -300 Level Chicago Center
09:19AM 42.5228 -90.3219 90° East 483 556 22,500 -720 Descending Chicago Center
09:20AM 42.5203 -90.1603 91° East 439 505 21,500 -1,020 Descending Chicago Center
09:21AM 42.5203 -90.0014 90° East 428 493 20,400 -1,080 Descending Chicago Center
09:22AM 42.5186 -89.8381 91° East 416 479 19,300 -1,260 Descending Chicago Center
09:23AM 42.5147 -89.6639 92° East 399 459 17,800 -1,320 Descending Chicago Center
09:24AM 42.4989 -89.5111 98° East 412 474 16,600 -1,140 Descending Chicago Center
09:25AM 42.4797 -89.3583 100° East 413 475 15,500 -1,140 Descending Chicago Center
09:26AM 42.4625 -89.2100 99° East 404 465 14,300 -780 Descending Chicago Center
09:27AM 42.4442 -89.0656 100° East 394 453 14,000 -240 Descending Chicago Center
09:28AM 42.4236 -88.8917 99° East 401 461 13,900 -960 Descending Chicago Center
09:29AM 42.4050 -88.7467 100° East 395 455 12,100 -1,740 Descending Chicago Center
09:30AM 42.3872 -88.6039 100° East 389 448 10,400 -1,020 Descending Chicago Center
09:31AM 42.3667 -88.4619 101° East 387 445 10,000 -240 Descending Chicago Center
09:32AM 42.3089 -88.3353 122° Southeast 380 437 10,000  Level Chicago Center
09:33AM 42.2431 -88.2258 129° Southeast 377 434 10,000 -420 Level Chicago Center
09:34AM 42.1869 -88.1361 130° Southeast 318 366 9,200 -1,080 Descending Chicago Center
09:35AM 42.1092 -88.0506 141° Southeast 304 350 7,800 -1,200 Descending Chicago Center
09:36AM 42.1000 -88.0000 104° East 275 316 7,300 -540 Descending Chicago TRACON
09:37AM 42.0833 -87.9000 103° East 241 277 7,000 -180 Descending Chicago TRACON
09:38AM 42.0833 -87.8167 90° East 232 267 7,000 -300 Level Chicago TRACON
09:39AM 42.0833 -87.7333 90° East 224 258 6,500 -600 Descending Chicago TRACON
09:40AM 42.0911 -87.7011 72° East 225 259 6,100 -1,140 Descending Chicago Center
09:41AM 42.0747 -87.6283 107° East 226 260 4,800 -1,020 Descending Chicago Center
09:42AM 42.0064 -87.6222 176° South 212 244 4,000 -660 Descending Chicago Center
09:43AM 42.0022 -87.6900 265° West 189 217 3,500 -780 Descending Chicago Center
09:44AM 42.0031 -87.7536 271° West 178 205 2,500 -1,020 Descending Chicago Center